sensor_id;sensor_type;location;lat;lon;timestamp;pressure;altitude;pressure_sealevel;temperature
49557;BMP280;35462;45.048;7.666;2023-08-06T00:03:06;97994.56;;;26.46
49557;BMP280;35462;45.048;7.666;2023-08-06T00:18:25;97980.00;;;26.36
49557;BMP280;35462;45.048;7.666;2023-08-06T00:33:44;97962.06;;;26.12
49557;BMP280;35462;45.048;7.666;2023-08-06T00:49:04;97953.09;;;25.97
49557;BMP280;35462;45.048;7.666;2023-08-06T01:04:24;97947.72;;;25.84
49557;BMP280;35462;45.048;7.666;2023-08-06T01:19:43;97949.81;;;25.78
49557;BMP280;35462;45.048;7.666;2023-08-06T01:35:04;97960.59;;;25.71
49557;BMP280;35462;45.048;7.666;2023-08-06T01:50:23;97964.41;;;25.55
49557;BMP280;35462;45.048;7.666;2023-08-06T02:05:45;97941.41;;;25.36
49557;BMP280;35462;45.048;7.666;2023-08-06T02:21:05;97913.41;;;25.33
49557;BMP280;35462;45.048;7.666;2023-08-06T02:36:24;97905.78;;;25.19
49557;BMP280;35462;45.048;7.666;2023-08-06T02:51:45;97893.13;;;25.14
49557;BMP280;35462;45.048;7.666;2023-08-06T03:07:04;97897.72;;;25.39
49557;BMP280;35462;45.048;7.666;2023-08-06T03:22:32;97879.66;;;25.42
49557;BMP280;35462;45.048;7.666;2023-08-06T03:37:52;97884.78;;;25.32
49557;BMP280;35462;45.048;7.666;2023-08-06T03:53:12;97887.31;;;25.30
49557;BMP280;35462;45.048;7.666;2023-08-06T04:08:31;97899.84;;;25.33
49557;BMP280;35462;45.048;7.666;2023-08-06T04:23:50;97894.31;;;25.26
49557;BMP280;35462;45.048;7.666;2023-08-06T04:39:11;97908.47;;;25.32
49557;BMP280;35462;45.048;7.666;2023-08-06T04:54:31;97903.06;;;25.32
49557;BMP280;35462;45.048;7.666;2023-08-06T05:09:50;97921.19;;;25.37
49557;BMP280;35462;45.048;7.666;2023-08-06T05:25:13;97924.09;;;25.39
49557;BMP280;35462;45.048;7.666;2023-08-06T05:40:34;97932.69;;;25.30
49557;BMP280;35462;45.048;7.666;2023-08-06T05:55:53;97930.47;;;26.22
49557;BMP280;35462;45.048;7.666;2023-08-06T06:11:13;97951.97;;;28.06
49557;BMP280;35462;45.048;7.666;2023-08-06T06:26:32;97948.25;;;31.43
49557;BMP280;35462;45.048;7.666;2023-08-06T06:41:52;97956.34;;;32.71
49557;BMP280;35462;45.048;7.666;2023-08-06T06:57:17;97958.38;;;33.19
49557;BMP280;35462;45.048;7.666;2023-08-06T07:12:37;97945.97;;;37.16
49557;BMP280;35462;45.048;7.666;2023-08-06T07:27:56;97952.19;;;37.86
49557;BMP280;35462;45.048;7.666;2023-08-06T07:43:16;97939.06;;;35.54
49557;BMP280;35462;45.048;7.666;2023-08-06T07:58:35;97940.84;;;35.27
49557;BMP280;35462;45.048;7.666;2023-08-06T08:13:55;97941.13;;;35.19
49557;BMP280;35462;45.048;7.666;2023-08-06T08:29:14;97940.34;;;35.53
49557;BMP280;35462;45.048;7.666;2023-08-06T08:44:34;97916.53;;;35.23
49557;BMP280;35462;45.048;7.666;2023-08-06T08:59:58;97925.88;;;35.18
49557;BMP280;35462;45.048;7.666;2023-08-06T09:15:17;97920.28;;;35.16
49557;BMP280;35462;45.048;7.666;2023-08-06T09:30:37;97928.91;;;34.56
49557;BMP280;35462;45.048;7.666;2023-08-06T09:45:57;97924.22;;;33.83
49557;BMP280;35462;45.048;7.666;2023-08-06T10:01:17;97949.03;;;33.43
49557;BMP280;35462;45.048;7.666;2023-08-06T10:16:40;97930.91;;;33.19
49557;BMP280;35462;45.048;7.666;2023-08-06T10:31:59;97932.81;;;32.68
49557;BMP280;35462;45.048;7.666;2023-08-06T10:47:26;97928.94;;;32.52
49557;BMP280;35462;45.048;7.666;2023-08-06T11:02:47;97909.59;;;32.03
49557;BMP280;35462;45.048;7.666;2023-08-06T11:18:07;97915.69;;;32.30
49557;BMP280;35462;45.048;7.666;2023-08-06T11:33:27;97905.84;;;31.89
49557;BMP280;35462;45.048;7.666;2023-08-06T11:48:56;97908.44;;;32.06
49557;BMP280;35462;45.048;7.666;2023-08-06T12:04:16;97890.84;;;31.81
49557;BMP280;35462;45.048;7.666;2023-08-06T12:19:36;97885.78;;;31.87
49557;BMP280;35462;45.048;7.666;2023-08-06T12:34:55;97890.19;;;31.54
49557;BMP280;35462;45.048;7.666;2023-08-06T12:50:15;97877.06;;;31.43
49557;BMP280;35462;45.048;7.666;2023-08-06T13:05:35;97879.09;;;31.52
49557;BMP280;35462;45.048;7.666;2023-08-06T13:20:55;97893.47;;;31.34
49557;BMP280;35462;45.048;7.666;2023-08-06T13:36:16;97906.13;;;31.29
49557;BMP280;35462;45.048;7.666;2023-08-06T13:51:36;97910.97;;;31.21
49557;BMP280;35462;45.048;7.666;2023-08-06T14:06:56;97905.72;;;31.06
49557;BMP280;35462;45.048;7.666;2023-08-06T14:22:15;97921.50;;;30.98
49557;BMP280;35462;45.048;7.666;2023-08-06T14:37:35;97915.31;;;30.98
49557;BMP280;35462;45.048;7.666;2023-08-06T14:52:54;97917.13;;;30.86
49557;BMP280;35462;45.048;7.666;2023-08-06T15:08:14;97926.22;;;30.72
49557;BMP280;35462;45.048;7.666;2023-08-06T15:23:33;97950.38;;;30.66
49557;BMP280;35462;45.048;7.666;2023-08-06T15:38:53;97959.47;;;30.51
49557;BMP280;35462;45.048;7.666;2023-08-06T15:54:12;97975.16;;;30.34
49557;BMP280;35462;45.048;7.666;2023-08-06T16:09:32;97985.91;;;30.15
49557;BMP280;35462;45.048;7.666;2023-08-06T16:24:51;98004.88;;;30.13
49557;BMP280;35462;45.048;7.666;2023-08-06T16:40:11;98018.72;;;29.67
49557;BMP280;35462;45.048;7.666;2023-08-06T16:55:31;98031.84;;;29.85
49557;BMP280;35462;45.048;7.666;2023-08-06T17:10:51;98035.22;;;29.44
49557;BMP280;35462;45.048;7.666;2023-08-06T17:26:10;98060.59;;;29.23
49557;BMP280;35462;45.048;7.666;2023-08-06T17:41:29;98071.78;;;29.02
49557;BMP280;35462;45.048;7.666;2023-08-06T17:56:49;98092.13;;;28.87
49557;BMP280;35462;45.048;7.666;2023-08-06T18:12:08;98115.81;;;28.54
49557;BMP280;35462;45.048;7.666;2023-08-06T18:27:27;98142.84;;;28.30
49557;BMP280;35462;45.048;7.666;2023-08-06T18:42:47;98166.00;;;27.94
49557;BMP280;35462;45.048;7.666;2023-08-06T18:58:06;98198.47;;;27.57
49557;BMP280;35462;45.048;7.666;2023-08-06T19:13:28;98220.06;;;27.55
49557;BMP280;35462;45.048;7.666;2023-08-06T19:28:47;98245.94;;;27.41
49557;BMP280;35462;45.048;7.666;2023-08-06T19:44:07;98278.75;;;27.43
49557;BMP280;35462;45.048;7.666;2023-08-06T19:59:26;98295.88;;;27.10
49557;BMP280;35462;45.048;7.666;2023-08-06T20:14:46;98320.59;;;26.99
49557;BMP280;35462;45.048;7.666;2023-08-06T20:30:06;98313.75;;;26.85
49557;BMP280;35462;45.048;7.666;2023-08-06T20:45:25;98329.50;;;26.67
49557;BMP280;35462;45.048;7.666;2023-08-06T21:00:45;98339.31;;;26.69
49557;BMP280;35462;45.048;7.666;2023-08-06T21:16:04;98364.81;;;26.67
49557;BMP280;35462;45.048;7.666;2023-08-06T21:31:24;98391.91;;;26.46
49557;BMP280;35462;45.048;7.666;2023-08-06T21:46:44;98407.16;;;26.23
49557;BMP280;35462;45.048;7.666;2023-08-06T22:02:03;98414.78;;;26.25
49557;BMP280;35462;45.048;7.666;2023-08-06T22:17:26;98420.63;;;25.85
49557;BMP280;35462;45.048;7.666;2023-08-06T22:32:46;98439.94;;;25.81
49557;BMP280;35462;45.048;7.666;2023-08-06T22:48:08;98456.16;;;25.87
49557;BMP280;35462;45.048;7.666;2023-08-06T23:03:28;98452.34;;;25.77
49557;BMP280;35462;45.048;7.666;2023-08-06T23:18:47;98455.34;;;25.73
49557;BMP280;35462;45.048;7.666;2023-08-06T23:34:06;98462.78;;;25.54
49557;BMP280;35462;45.048;7.666;2023-08-06T23:49:27;98460.16;;;25.49
